sensor_id;sensor_type;location;lat;lon;timestamp;P1;durP1;ratioP1;P2;durP2;ratioP2
791;SDS011;379;49.022;12.148;2022-07-22T00:01:48;16.50;;;15.00;;
791;SDS011;379;49.022;12.148;2022-07-22T00:04:14;16.73;;;15.23;;
791;SDS011;379;49.022;12.148;2022-07-22T00:06:41;18.20;;;16.50;;
791;SDS011;379;49.022;12.148;2022-07-22T00:09:08;18.17;;;16.47;;
791;SDS011;379;49.022;12.148;2022-07-22T00:11:35;16.23;;;14.63;;
791;SDS011;379;49.022;12.148;2022-07-22T00:14:02;17.00;;;15.30;;
791;SDS011;379;49.022;12.148;2022-07-22T00:16:28;17.57;;;15.80;;
791;SDS011;379;49.022;12.148;2022-07-22T00:18:57;18.17;;;16.27;;
791;SDS011;379;49.022;12.148;2022-07-22T00:21:23;18.77;;;16.97;;
791;SDS011;379;49.022;12.148;2022-07-22T00:23:50;17.83;;;16.13;;
791;SDS011;379;49.022;12.148;2022-07-22T00:26:17;18.50;;;16.83;;
791;SDS011;379;49.022;12.148;2022-07-22T00:28:43;18.40;;;16.70;;
791;SDS011;379;49.022;12.148;2022-07-22T00:31:10;15.97;;;14.40;;
791;SDS011;379;49.022;12.148;2022-07-22T00:33:37;17.57;;;15.90;;
791;SDS011;379;49.022;12.148;2022-07-22T00:36:05;16.53;;;14.97;;
791;SDS011;379;49.022;12.148;2022-07-22T00:38:33;16.00;;;14.40;;
791;SDS011;379;49.022;12.148;2022-07-22T00:41:00;17.40;;;15.90;;
791;SDS011;379;49.022;12.148;2022-07-22T00:43:27;17.63;;;16.00;;
791;SDS011;379;49.022;12.148;2022-07-22T00:45:54;17.97;;;16.17;;
791;SDS011;379;49.022;12.148;2022-07-22T00:48:21;18.57;;;16.80;;
791;SDS011;379;49.022;12.148;2022-07-22T00:50:47;20.30;;;18.50;;
791;SDS011;379;49.022;12.148;2022-07-22T00:53:15;17.30;;;15.70;;
791;SDS011;379;49.022;12.148;2022-07-22T00:55:42;16.37;;;14.97;;
791;SDS011;379;49.022;12.148;2022-07-22T00:58:09;18.20;;;16.47;;
791;SDS011;379;49.022;12.148;2022-07-22T01:00:36;19.53;;;17.83;;
791;SDS011;379;49.022;12.148;2022-07-22T01:03:02;15.70;;;14.30;;
791;SDS011;379;49.022;12.148;2022-07-22T01:05:29;17.90;;;16.20;;
791;SDS011;379;49.022;12.148;2022-07-22T01:07:56;16.73;;;15.30;;
791;SDS011;379;49.022;12.148;2022-07-22T01:10:24;17.80;;;16.20;;
791;SDS011;379;49.022;12.148;2022-07-22T01:12:51;18.53;;;16.83;;
791;SDS011;379;49.022;12.148;2022-07-22T01:15:18;18.17;;;16.37;;
791;SDS011;379;49.022;12.148;2022-07-22T01:17:44;18.60;;;16.90;;
791;SDS011;379;49.022;12.148;2022-07-22T01:20:12;21.50;;;19.40;;
791;SDS011;379;49.022;12.148;2022-07-22T01:22:39;22.03;;;19.80;;
791;SDS011;379;49.022;12.148;2022-07-22T01:25:06;21.80;;;19.60;;
791;SDS011;379;49.022;12.148;2022-07-22T01:27:33;21.60;;;19.53;;
791;SDS011;379;49.022;12.148;2022-07-22T01:30:00;21.23;;;19.00;;
791;SDS011;379;49.022;12.148;2022-07-22T01:32:26;19.73;;;17.93;;
791;SDS011;379;49.022;12.148;2022-07-22T01:34:53;19.70;;;17.67;;
791;SDS011;379;49.022;12.148;2022-07-22T01:37:21;18.40;;;16.50;;
791;SDS011;379;49.022;12.148;2022-07-22T01:39:48;21.40;;;19.50;;
791;SDS011;379;49.022;12.148;2022-07-22T01:42:15;21.57;;;19.47;;
791;SDS011;379;49.022;12.148;2022-07-22T01:44:42;20.17;;;18.30;;
791;SDS011;379;49.022;12.148;2022-07-22T01:47:09;19.90;;;17.67;;
791;SDS011;379;49.022;12.148;2022-07-22T01:49:36;21.07;;;18.90;;
791;SDS011;379;49.022;12.148;2022-07-22T01:52:03;22.07;;;19.90;;
791;SDS011;379;49.022;12.148;2022-07-22T01:54:31;20.37;;;18.47;;
791;SDS011;379;49.022;12.148;2022-07-22T01:56:58;19.77;;;17.77;;
791;SDS011;379;49.022;12.148;2022-07-22T01:59:25;18.57;;;16.87;;
791;SDS011;379;49.022;12.148;2022-07-22T02:01:51;19.87;;;18.07;;
791;SDS011;379;49.022;12.148;2022-07-22T02:04:18;20.40;;;18.60;;
791;SDS011;379;49.022;12.148;2022-07-22T02:06:45;20.57;;;18.57;;
791;SDS011;379;49.022;12.148;2022-07-22T02:09:11;19.73;;;17.83;;
791;SDS011;379;49.022;12.148;2022-07-22T02:11:40;20.17;;;18.27;;
791;SDS011;379;49.022;12.148;2022-07-22T02:14:07;17.77;;;16.00;;
791;SDS011;379;49.022;12.148;2022-07-22T02:16:33;18.73;;;16.93;;
791;SDS011;379;49.022;12.148;2022-07-22T02:19:00;18.23;;;16.50;;
791;SDS011;379;49.022;12.148;2022-07-22T02:21:27;18.13;;;16.43;;
791;SDS011;379;49.022;12.148;2022-07-22T02:23:54;22.23;;;20.20;;
791;SDS011;379;49.022;12.148;2022-07-22T02:26:20;18.10;;;16.40;;
791;SDS011;379;49.022;12.148;2022-07-22T02:28:48;18.00;;;16.30;;
791;SDS011;379;49.022;12.148;2022-07-22T02:31:15;24.70;;;22.10;;
791;SDS011;379;49.022;12.148;2022-07-22T02:33:42;23.87;;;21.20;;
791;SDS011;379;49.022;12.148;2022-07-22T02:36:08;21.60;;;19.60;;
791;SDS011;379;49.022;12.148;2022-07-22T02:38:35;23.40;;;21.27;;
791;SDS011;379;49.022;12.148;2022-07-22T02:41:02;27.67;;;24.70;;
791;SDS011;379;49.022;12.148;2022-07-22T02:43:29;23.53;;;21.03;;
791;SDS011;379;49.022;12.148;2022-07-22T02:45:57;27.40;;;24.43;;
791;SDS011;379;49.022;12.148;2022-07-22T02:48:23;30.53;;;27.27;;
791;SDS011;379;49.022;12.148;2022-07-22T02:50:50;31.53;;;28.10;;
791;SDS011;379;49.022;12.148;2022-07-22T02:53:17;29.47;;;26.27;;
791;SDS011;379;49.022;12.148;2022-07-22T02:55:43;28.33;;;24.93;;
791;SDS011;379;49.022;12.148;2022-07-22T02:58:10;25.20;;;21.97;;
791;SDS011;379;49.022;12.148;2022-07-22T03:00:37;25.73;;;23.03;;
791;SDS011;379;49.022;12.148;2022-07-22T03:03:05;26.53;;;23.80;;
791;SDS011;379;49.022;12.148;2022-07-22T03:05:32;25.80;;;22.83;;
791;SDS011;379;49.022;12.148;2022-07-22T03:07:59;22.23;;;20.10;;
791;SDS011;379;49.022;12.148;2022-07-22T03:10:25;24.23;;;21.83;;
791;SDS011;379;49.022;12.148;2022-07-22T03:12:52;24.07;;;21.57;;
791;SDS011;379;49.022;12.148;2022-07-22T03:15:19;28.10;;;23.77;;
791;SDS011;379;49.022;12.148;2022-07-22T03:17:45;26.30;;;22.60;;
791;SDS011;379;49.022;12.148;2022-07-22T03:20:13;21.90;;;19.70;;
791;SDS011;379;49.022;12.148;2022-07-22T03:22:40;24.77;;;22.37;;
791;SDS011;379;49.022;12.148;2022-07-22T03:25:07;31.90;;;24.60;;
791;SDS011;379;49.022;12.148;2022-07-22T03:27:34;28.37;;;25.30;;
791;SDS011;379;49.022;12.148;2022-07-22T03:30:01;27.00;;;24.30;;
791;SDS011;379;49.022;12.148;2022-07-22T03:32:28;25.40;;;22.77;;
791;SDS011;379;49.022;12.148;2022-07-22T03:34:54;27.90;;;23.73;;
791;SDS011;379;49.022;12.148;2022-07-22T03:37:22;24.97;;;22.33;;
791;SDS011;379;49.022;12.148;2022-07-22T03:39:49;24.90;;;22.30;;
791;SDS011;379;49.022;12.148;2022-07-22T03:42:16;25.77;;;23.03;;
791;SDS011;379;49.022;12.148;2022-07-22T03:44:42;24.63;;;21.60;;
791;SDS011;379;49.022;12.148;2022-07-22T03:47:09;23.97;;;21.57;;
791;SDS011;379;49.022;12.148;2022-07-22T03:49:36;24.10;;;21.70;;
791;SDS011;379;49.022;12.148;2022-07-22T03:52:03;22.67;;;20.30;;
791;SDS011;379;49.022;12.148;2022-07-22T03:54:31;23.40;;;21.13;;
791;SDS011;379;49.022;12.148;2022-07-22T03:56:58;24.47;;;21.97;;
791;SDS011;379;49.022;12.148;2022-07-22T03:59:24;23.10;;;20.90;;
791;SDS011;379;49.022;12.148;2022-07-22T04:01:51;26.10;;;21.57;;
791;SDS011;379;49.022;12.148;2022-07-22T04:04:18;24.67;;;22.27;;
791;SDS011;379;49.022;12.148;2022-07-22T04:06:44;28.40;;;23.63;;
791;SDS011;379;49.022;12.148;2022-07-22T04:09:11;26.67;;;23.80;;
791;SDS011;379;49.022;12.148;2022-07-22T04:11:39;24.67;;;22.17;;
791;SDS011;379;49.022;12.148;2022-07-22T04:14:06;25.00;;;21.70;;
791;SDS011;379;49.022;12.148;2022-07-22T04:16:32;23.27;;;21.07;;
791;SDS011;379;49.022;12.148;2022-07-22T04:19:00;22.97;;;20.83;;
791;SDS011;379;49.022;12.148;2022-07-22T04:21:26;22.50;;;20.37;;
791;SDS011;379;49.022;12.148;2022-07-22T04:23:53;21.50;;;19.50;;
791;SDS011;379;49.022;12.148;2022-07-22T04:26:20;21.83;;;19.67;;
791;SDS011;379;49.022;12.148;2022-07-22T04:28:48;21.90;;;19.57;;
791;SDS011;379;49.022;12.148;2022-07-22T04:31:15;20.10;;;18.30;;
791;SDS011;379;49.022;12.148;2022-07-22T04:33:42;20.07;;;17.67;;
791;SDS011;379;49.022;12.148;2022-07-22T04:36:08;18.20;;;15.67;;
791;SDS011;379;49.022;12.148;2022-07-22T04:38:35;17.47;;;15.67;;
791;SDS011;379;49.022;12.148;2022-07-22T04:41:02;16.90;;;15.50;;
791;SDS011;379;49.022;12.148;2022-07-22T04:43:29;16.43;;;14.83;;
791;SDS011;379;49.022;12.148;2022-07-22T04:45:57;15.13;;;13.63;;
791;SDS011;379;49.022;12.148;2022-07-22T04:48:24;13.77;;;12.63;;
791;SDS011;379;49.022;12.148;2022-07-22T04:50:50;14.53;;;13.27;;
791;SDS011;379;49.022;12.148;2022-07-22T04:53:17;15.20;;;13.20;;
791;SDS011;379;49.022;12.148;2022-07-22T04:55:44;14.70;;;13.43;;
791;SDS011;379;49.022;12.148;2022-07-22T04:58:10;15.00;;;13.53;;
791;SDS011;379;49.022;12.148;2022-07-22T05:00:37;16.00;;;14.40;;
791;SDS011;379;49.022;12.148;2022-07-22T05:03:05;14.83;;;13.57;;
791;SDS011;379;49.022;12.148;2022-07-22T05:05:32;14.57;;;13.37;;
791;SDS011;379;49.022;12.148;2022-07-22T05:07:59;18.13;;;14.47;;
791;SDS011;379;49.022;12.148;2022-07-22T05:10:25;16.43;;;14.87;;
791;SDS011;379;49.022;12.148;2022-07-22T05:12:52;15.83;;;14.30;;
791;SDS011;379;49.022;12.148;2022-07-22T05:15:19;15.13;;;13.53;;
791;SDS011;379;49.022;12.148;2022-07-22T05:17:46;15.87;;;14.10;;
791;SDS011;379;49.022;12.148;2022-07-22T05:20:14;15.60;;;14.17;;
791;SDS011;379;49.022;12.148;2022-07-22T05:22:41;14.77;;;13.30;;
791;SDS011;379;49.022;12.148;2022-07-22T05:25:08;13.90;;;12.80;;
791;SDS011;379;49.022;12.148;2022-07-22T05:27:35;15.30;;;13.50;;
791;SDS011;379;49.022;12.148;2022-07-22T05:30:01;14.23;;;13.10;;
791;SDS011;379;49.022;12.148;2022-07-22T05:32:29;14.83;;;13.53;;
791;SDS011;379;49.022;12.148;2022-07-22T05:34:56;13.83;;;12.73;;
791;SDS011;379;49.022;12.148;2022-07-22T05:37:24;15.23;;;13.93;;
791;SDS011;379;49.022;12.148;2022-07-22T05:39:51;13.70;;;12.57;;
791;SDS011;379;49.022;12.148;2022-07-22T05:42:17;14.70;;;13.40;;
791;SDS011;379;49.022;12.148;2022-07-22T05:44:44;16.07;;;14.23;;
791;SDS011;379;49.022;12.148;2022-07-22T05:47:10;15.03;;;13.63;;
791;SDS011;379;49.022;12.148;2022-07-22T05:49:37;15.33;;;14.13;;
791;SDS011;379;49.022;12.148;2022-07-22T05:52:04;15.03;;;13.77;;
791;SDS011;379;49.022;12.148;2022-07-22T05:54:32;14.63;;;13.43;;
791;SDS011;379;49.022;12.148;2022-07-22T05:56:59;14.17;;;12.70;;
791;SDS011;379;49.022;12.148;2022-07-22T05:59:26;15.20;;;13.77;;
791;SDS011;379;49.022;12.148;2022-07-22T06:01:52;14.70;;;13.40;;
791;SDS011;379;49.022;12.148;2022-07-22T06:04:19;15.67;;;14.40;;
791;SDS011;379;49.022;12.148;2022-07-22T06:06:46;16.60;;;14.87;;
791;SDS011;379;49.022;12.148;2022-07-22T06:09:13;15.00;;;13.80;;
791;SDS011;379;49.022;12.148;2022-07-22T06:11:41;15.57;;;14.43;;
791;SDS011;379;49.022;12.148;2022-07-22T06:14:08;14.83;;;13.60;;
791;SDS011;379;49.022;12.148;2022-07-22T06:16:35;15.50;;;14.20;;
791;SDS011;379;49.022;12.148;2022-07-22T06:19:02;15.00;;;13.90;;
791;SDS011;379;49.022;12.148;2022-07-22T06:21:29;15.23;;;14.03;;
791;SDS011;379;49.022;12.148;2022-07-22T06:23:56;16.43;;;15.07;;
791;SDS011;379;49.022;12.148;2022-07-22T06:26:22;16.50;;;15.10;;
791;SDS011;379;49.022;12.148;2022-07-22T06:28:51;16.00;;;14.70;;
791;SDS011;379;49.022;12.148;2022-07-22T06:31:17;16.53;;;15.20;;
791;SDS011;379;49.022;12.148;2022-07-22T06:33:44;15.83;;;14.63;;
791;SDS011;379;49.022;12.148;2022-07-22T06:36:11;17.10;;;15.90;;
791;SDS011;379;49.022;12.148;2022-07-22T06:38:39;17.50;;;16.10;;
791;SDS011;379;49.022;12.148;2022-07-22T06:41:06;16.80;;;15.40;;
791;SDS011;379;49.022;12.148;2022-07-22T06:43:32;16.40;;;15.00;;
791;SDS011;379;49.022;12.148;2022-07-22T06:46:00;15.90;;;14.60;;
791;SDS011;379;49.022;12.148;2022-07-22T06:48:27;16.67;;;15.47;;
791;SDS011;379;49.022;12.148;2022-07-22T06:50:54;19.13;;;17.53;;
791;SDS011;379;49.022;12.148;2022-07-22T06:53:20;19.73;;;18.13;;
791;SDS011;379;49.022;12.148;2022-07-22T06:55:47;17.30;;;15.90;;
791;SDS011;379;49.022;12.148;2022-07-22T06:58:14;18.40;;;17.00;;
791;SDS011;379;49.022;12.148;2022-07-22T07:00:40;19.80;;;18.13;;
791;SDS011;379;49.022;12.148;2022-07-22T07:03:08;16.80;;;15.43;;
791;SDS011;379;49.022;12.148;2022-07-22T07:05:35;16.80;;;15.50;;
791;SDS011;379;49.022;12.148;2022-07-22T07:08:02;16.50;;;15.30;;
791;SDS011;379;49.022;12.148;2022-07-22T07:10:29;16.88;;;15.68;;
791;SDS011;379;49.022;12.148;2022-07-22T07:12:57;17.42;;;16.00;;
791;SDS011;379;49.022;12.148;2022-07-22T07:15:24;17.23;;;15.82;;
791;SDS011;379;49.022;12.148;2022-07-22T07:17:51;17.38;;;15.98;;
791;SDS011;379;49.022;12.148;2022-07-22T07:20:20;17.30;;;16.00;;
791;SDS011;379;49.022;12.148;2022-07-22T07:22:47;17.27;;;15.80;;
791;SDS011;379;49.022;12.148;2022-07-22T07:25:14;17.77;;;16.55;;
791;SDS011;379;49.022;12.148;2022-07-22T07:27:41;17.92;;;16.35;;
791;SDS011;379;49.022;12.148;2022-07-22T07:30:08;16.55;;;15.30;;
791;SDS011;379;49.022;12.148;2022-07-22T07:32:36;20.27;;;18.75;;
791;SDS011;379;49.022;12.148;2022-07-22T07:35:04;18.48;;;16.98;;
791;SDS011;379;49.022;12.148;2022-07-22T07:37:33;16.67;;;15.20;;
791;SDS011;379;49.022;12.148;2022-07-22T07:40:00;18.88;;;17.48;;
791;SDS011;379;49.022;12.148;2022-07-22T07:42:26;19.85;;;18.23;;
791;SDS011;379;49.022;12.148;2022-07-22T07:44:53;18.27;;;16.70;;
791;SDS011;379;49.022;12.148;2022-07-22T07:47:21;16.85;;;15.48;;
791;SDS011;379;49.022;12.148;2022-07-22T07:49:48;16.02;;;14.65;;
791;SDS011;379;49.022;12.148;2022-07-22T07:52:15;15.82;;;14.63;;
791;SDS011;379;49.022;12.148;2022-07-22T07:54:44;17.42;;;16.02;;
791;SDS011;379;49.022;12.148;2022-07-22T07:57:13;16.75;;;15.43;;
791;SDS011;379;49.022;12.148;2022-07-22T07:59:40;18.00;;;16.63;;
791;SDS011;379;49.022;12.148;2022-07-22T08:02:07;19.20;;;17.10;;
791;SDS011;379;49.022;12.148;2022-07-22T08:04:34;16.80;;;15.43;;
791;SDS011;379;49.022;12.148;2022-07-22T08:07:01;16.13;;;14.88;;
791;SDS011;379;49.022;12.148;2022-07-22T08:09:28;18.50;;;16.67;;
791;SDS011;379;49.022;12.148;2022-07-22T08:11:56;14.98;;;13.65;;
791;SDS011;379;49.022;12.148;2022-07-22T08:14:23;15.30;;;14.20;;
791;SDS011;379;49.022;12.148;2022-07-22T08:16:50;14.77;;;13.77;;
791;SDS011;379;49.022;12.148;2022-07-22T08:19:17;16.77;;;15.43;;
791;SDS011;379;49.022;12.148;2022-07-22T08:21:44;15.07;;;13.93;;
791;SDS011;379;49.022;12.148;2022-07-22T08:24:10;15.87;;;14.50;;
791;SDS011;379;49.022;12.148;2022-07-22T08:26:37;16.27;;;14.73;;
791;SDS011;379;49.022;12.148;2022-07-22T08:29:05;14.63;;;13.43;;
791;SDS011;379;49.022;12.148;2022-07-22T08:31:35;15.10;;;13.83;;
791;SDS011;379;49.022;12.148;2022-07-22T08:34:03;13.33;;;12.33;;
791;SDS011;379;49.022;12.148;2022-07-22T08:36:30;15.60;;;14.30;;
791;SDS011;379;49.022;12.148;2022-07-22T08:38:57;13.17;;;12.17;;
791;SDS011;379;49.022;12.148;2022-07-22T08:41:24;14.43;;;13.13;;
791;SDS011;379;49.022;12.148;2022-07-22T08:43:51;13.47;;;12.30;;
791;SDS011;379;49.022;12.148;2022-07-22T08:46:19;9.97;;;9.17;;
791;SDS011;379;49.022;12.148;2022-07-22T08:48:46;11.87;;;10.70;;
791;SDS011;379;49.022;12.148;2022-07-22T08:51:13;13.80;;;12.63;;
791;SDS011;379;49.022;12.148;2022-07-22T08:53:39;13.10;;;11.97;;
791;SDS011;379;49.022;12.148;2022-07-22T08:56:07;13.60;;;12.50;;
791;SDS011;379;49.022;12.148;2022-07-22T08:58:34;13.73;;;12.63;;
791;SDS011;379;49.022;12.148;2022-07-22T09:01:04;10.53;;;9.60;;
791;SDS011;379;49.022;12.148;2022-07-22T09:03:34;9.43;;;8.73;;
791;SDS011;379;49.022;12.148;2022-07-22T09:06:10;11.43;;;10.27;;
791;SDS011;379;49.022;12.148;2022-07-22T09:08:49;10.60;;;9.70;;
791;SDS011;379;49.022;12.148;2022-07-22T09:11:17;10.57;;;9.77;;
791;SDS011;379;49.022;12.148;2022-07-22T09:13:45;8.50;;;7.67;;
791;SDS011;379;49.022;12.148;2022-07-22T09:16:12;8.80;;;8.20;;
791;SDS011;379;49.022;12.148;2022-07-22T09:18:47;9.00;;;8.20;;
791;SDS011;379;49.022;12.148;2022-07-22T09:21:15;9.07;;;8.23;;
791;SDS011;379;49.022;12.148;2022-07-22T09:23:43;9.30;;;8.60;;
791;SDS011;379;49.022;12.148;2022-07-22T09:26:28;10.27;;;9.47;;
791;SDS011;379;49.022;12.148;2022-07-22T09:28:56;12.57;;;11.43;;
791;SDS011;379;49.022;12.148;2022-07-22T09:31:23;12.17;;;11.13;;
791;SDS011;379;49.022;12.148;2022-07-22T09:33:53;11.90;;;11.00;;
791;SDS011;379;49.022;12.148;2022-07-22T09:36:20;11.67;;;10.60;;
791;SDS011;379;49.022;12.148;2022-07-22T09:38:46;13.33;;;12.10;;
791;SDS011;379;49.022;12.148;2022-07-22T09:41:13;12.97;;;11.77;;
791;SDS011;379;49.022;12.148;2022-07-22T09:43:40;13.27;;;12.20;;
791;SDS011;379;49.022;12.148;2022-07-22T09:46:08;12.43;;;11.30;;
791;SDS011;379;49.022;12.148;2022-07-22T09:48:35;13.10;;;11.97;;
791;SDS011;379;49.022;12.148;2022-07-22T09:51:04;13.27;;;12.17;;
791;SDS011;379;49.022;12.148;2022-07-22T09:53:32;12.60;;;11.50;;
791;SDS011;379;49.022;12.148;2022-07-22T09:56:00;11.93;;;10.70;;
791;SDS011;379;49.022;12.148;2022-07-22T09:58:28;12.03;;;10.93;;
791;SDS011;379;49.022;12.148;2022-07-22T10:00:57;13.40;;;12.13;;
791;SDS011;379;49.022;12.148;2022-07-22T10:03:25;13.67;;;12.30;;
791;SDS011;379;49.022;12.148;2022-07-22T10:05:54;12.90;;;11.87;;
791;SDS011;379;49.022;12.148;2022-07-22T10:08:23;12.80;;;11.60;;
791;SDS011;379;49.022;12.148;2022-07-22T10:10:51;13.93;;;12.73;;
791;SDS011;379;49.022;12.148;2022-07-22T10:13:19;12.70;;;11.33;;
791;SDS011;379;49.022;12.148;2022-07-22T10:15:46;12.07;;;11.10;;
791;SDS011;379;49.022;12.148;2022-07-22T10:18:13;12.20;;;11.20;;
791;SDS011;379;49.022;12.148;2022-07-22T10:20:42;13.57;;;12.27;;
791;SDS011;379;49.022;12.148;2022-07-22T10:23:09;11.80;;;10.87;;
791;SDS011;379;49.022;12.148;2022-07-22T10:25:51;12.97;;;11.97;;
791;SDS011;379;49.022;12.148;2022-07-22T10:28:20;12.57;;;11.60;;
791;SDS011;379;49.022;12.148;2022-07-22T10:30:49;13.17;;;12.07;;
791;SDS011;379;49.022;12.148;2022-07-22T10:33:16;13.83;;;12.60;;
791;SDS011;379;49.022;12.148;2022-07-22T10:35:55;12.33;;;11.33;;
791;SDS011;379;49.022;12.148;2022-07-22T10:38:23;12.97;;;11.83;;
791;SDS011;379;49.022;12.148;2022-07-22T10:40:53;13.33;;;12.03;;
791;SDS011;379;49.022;12.148;2022-07-22T10:43:21;13.20;;;12.20;;
791;SDS011;379;49.022;12.148;2022-07-22T10:45:53;12.60;;;11.60;;
791;SDS011;379;49.022;12.148;2022-07-22T10:48:22;12.40;;;11.37;;
791;SDS011;379;49.022;12.148;2022-07-22T10:50:51;13.23;;;12.07;;
791;SDS011;379;49.022;12.148;2022-07-22T10:53:21;13.20;;;12.10;;
791;SDS011;379;49.022;12.148;2022-07-22T10:58:45;12.40;;;11.40;;
791;SDS011;379;49.022;12.148;2022-07-22T11:01:17;12.63;;;11.47;;
791;SDS011;379;49.022;12.148;2022-07-22T11:03:46;12.07;;;11.03;;
791;SDS011;379;49.022;12.148;2022-07-22T11:06:16;11.80;;;10.80;;
791;SDS011;379;49.022;12.148;2022-07-22T11:08:45;11.87;;;10.97;;
791;SDS011;379;49.022;12.148;2022-07-22T11:11:13;11.50;;;10.50;;
791;SDS011;379;49.022;12.148;2022-07-22T11:13:42;13.53;;;12.37;;
791;SDS011;379;49.022;12.148;2022-07-22T11:16:13;12.60;;;11.53;;
791;SDS011;379;49.022;12.148;2022-07-22T11:18:45;11.27;;;10.20;;
791;SDS011;379;49.022;12.148;2022-07-22T11:21:13;10.93;;;9.70;;
791;SDS011;379;49.022;12.148;2022-07-22T11:23:42;10.60;;;9.60;;
791;SDS011;379;49.022;12.148;2022-07-22T11:26:10;10.83;;;10.03;;
791;SDS011;379;49.022;12.148;2022-07-22T11:28:42;11.20;;;10.30;;
791;SDS011;379;49.022;12.148;2022-07-22T11:31:10;10.37;;;9.60;;
791;SDS011;379;49.022;12.148;2022-07-22T11:33:41;12.50;;;11.40;;
791;SDS011;379;49.022;12.148;2022-07-22T11:36:09;10.10;;;9.30;;
791;SDS011;379;49.022;12.148;2022-07-22T11:38:43;9.73;;;8.93;;
791;SDS011;379;49.022;12.148;2022-07-22T11:41:11;9.50;;;8.70;;
791;SDS011;379;49.022;12.148;2022-07-22T11:43:43;10.07;;;9.37;;
791;SDS011;379;49.022;12.148;2022-07-22T11:46:11;9.20;;;8.43;;
791;SDS011;379;49.022;12.148;2022-07-22T11:48:39;10.07;;;9.27;;
791;SDS011;379;49.022;12.148;2022-07-22T11:51:07;9.73;;;8.93;;
791;SDS011;379;49.022;12.148;2022-07-22T11:53:35;10.47;;;9.40;;
791;SDS011;379;49.022;12.148;2022-07-22T11:56:02;9.40;;;8.60;;
791;SDS011;379;49.022;12.148;2022-07-22T11:58:35;10.30;;;9.37;;
791;SDS011;379;49.022;12.148;2022-07-22T12:01:04;10.30;;;9.60;;
791;SDS011;379;49.022;12.148;2022-07-22T12:03:32;9.77;;;8.87;;
791;SDS011;379;49.022;12.148;2022-07-22T12:06:00;10.10;;;8.97;;
791;SDS011;379;49.022;12.148;2022-07-22T12:08:29;10.27;;;9.57;;
791;SDS011;379;49.022;12.148;2022-07-22T12:10:56;12.20;;;11.10;;
791;SDS011;379;49.022;12.148;2022-07-22T12:13:27;11.33;;;10.37;;
791;SDS011;379;49.022;12.148;2022-07-22T12:15:55;9.93;;;9.03;;
791;SDS011;379;49.022;12.148;2022-07-22T12:18:23;9.10;;;8.40;;
791;SDS011;379;49.022;12.148;2022-07-22T12:20:52;9.90;;;9.10;;
791;SDS011;379;49.022;12.148;2022-07-22T12:23:21;10.43;;;9.20;;
791;SDS011;379;49.022;12.148;2022-07-22T12:25:49;10.40;;;9.50;;
791;SDS011;379;49.022;12.148;2022-07-22T12:28:17;9.00;;;8.30;;
791;SDS011;379;49.022;12.148;2022-07-22T12:30:44;10.40;;;9.57;;
791;SDS011;379;49.022;12.148;2022-07-22T12:33:12;10.40;;;9.60;;
791;SDS011;379;49.022;12.148;2022-07-22T12:35:41;11.13;;;9.73;;
791;SDS011;379;49.022;12.148;2022-07-22T12:38:09;10.13;;;9.23;;
791;SDS011;379;49.022;12.148;2022-07-22T12:40:36;10.63;;;9.77;;
791;SDS011;379;49.022;12.148;2022-07-22T12:43:04;9.97;;;9.10;;
791;SDS011;379;49.022;12.148;2022-07-22T12:45:33;10.60;;;9.70;;
791;SDS011;379;49.022;12.148;2022-07-22T12:48:07;9.67;;;8.97;;
791;SDS011;379;49.022;12.148;2022-07-22T12:50:36;9.17;;;8.40;;
791;SDS011;379;49.022;12.148;2022-07-22T12:53:06;10.20;;;9.37;;
791;SDS011;379;49.022;12.148;2022-07-22T12:55:35;10.20;;;9.30;;
791;SDS011;379;49.022;12.148;2022-07-22T12:58:03;9.23;;;8.43;;
791;SDS011;379;49.022;12.148;2022-07-22T13:00:31;9.80;;;9.00;;
791;SDS011;379;49.022;12.148;2022-07-22T13:02:59;10.10;;;9.30;;
791;SDS011;379;49.022;12.148;2022-07-22T13:05:26;9.37;;;8.60;;
791;SDS011;379;49.022;12.148;2022-07-22T13:07:54;10.40;;;9.60;;
791;SDS011;379;49.022;12.148;2022-07-22T13:10:22;9.90;;;9.20;;
791;SDS011;379;49.022;12.148;2022-07-22T13:12:51;9.90;;;9.10;;
791;SDS011;379;49.022;12.148;2022-07-22T13:15:18;9.77;;;9.07;;
791;SDS011;379;49.022;12.148;2022-07-22T13:17:46;8.87;;;8.13;;
791;SDS011;379;49.022;12.148;2022-07-22T13:20:14;8.87;;;8.17;;
791;SDS011;379;49.022;12.148;2022-07-22T13:22:43;10.20;;;9.40;;
791;SDS011;379;49.022;12.148;2022-07-22T13:25:10;9.47;;;8.70;;
791;SDS011;379;49.022;12.148;2022-07-22T13:27:38;9.60;;;8.90;;
791;SDS011;379;49.022;12.148;2022-07-22T13:30:06;10.60;;;9.80;;
791;SDS011;379;49.022;12.148;2022-07-22T13:32:33;10.50;;;9.63;;
791;SDS011;379;49.022;12.148;2022-07-22T13:35:00;10.00;;;9.07;;
791;SDS011;379;49.022;12.148;2022-07-22T13:37:27;9.27;;;8.47;;
791;SDS011;379;49.022;12.148;2022-07-22T13:39:54;9.37;;;8.57;;
791;SDS011;379;49.022;12.148;2022-07-22T13:42:20;9.43;;;8.50;;
791;SDS011;379;49.022;12.148;2022-07-22T13:44:49;9.43;;;8.63;;
791;SDS011;379;49.022;12.148;2022-07-22T13:47:16;9.20;;;8.53;;
791;SDS011;379;49.022;12.148;2022-07-22T13:49:43;9.00;;;8.37;;
791;SDS011;379;49.022;12.148;2022-07-22T13:52:11;9.73;;;9.03;;
791;SDS011;379;49.022;12.148;2022-07-22T13:54:39;10.30;;;9.10;;
791;SDS011;379;49.022;12.148;2022-07-22T13:57:06;8.73;;;7.93;;
791;SDS011;379;49.022;12.148;2022-07-22T13:59:35;9.20;;;8.50;;
791;SDS011;379;49.022;12.148;2022-07-22T14:02:03;9.70;;;8.80;;
791;SDS011;379;49.022;12.148;2022-07-22T14:04:30;8.97;;;8.37;;
791;SDS011;379;49.022;12.148;2022-07-22T14:06:57;8.73;;;8.03;;
791;SDS011;379;49.022;12.148;2022-07-22T14:09:24;10.83;;;8.00;;
791;SDS011;379;49.022;12.148;2022-07-22T14:11:51;8.20;;;7.60;;
791;SDS011;379;49.022;12.148;2022-07-22T14:14:18;9.57;;;8.77;;
791;SDS011;379;49.022;12.148;2022-07-22T14:16:45;8.13;;;7.53;;
791;SDS011;379;49.022;12.148;2022-07-22T14:19:14;9.60;;;7.80;;
791;SDS011;379;49.022;12.148;2022-07-22T14:21:42;8.70;;;8.10;;
791;SDS011;379;49.022;12.148;2022-07-22T14:24:10;10.10;;;9.10;;
791;SDS011;379;49.022;12.148;2022-07-22T14:26:37;8.70;;;8.00;;
791;SDS011;379;49.022;12.148;2022-07-22T14:29:04;8.30;;;7.60;;
791;SDS011;379;49.022;12.148;2022-07-22T14:31:33;8.70;;;8.10;;
791;SDS011;379;49.022;12.148;2022-07-22T14:34:00;7.97;;;7.37;;
791;SDS011;379;49.022;12.148;2022-07-22T14:36:28;9.17;;;8.47;;
791;SDS011;379;49.022;12.148;2022-07-22T14:38:54;9.07;;;8.30;;
791;SDS011;379;49.022;12.148;2022-07-22T14:41:21;8.47;;;7.90;;
791;SDS011;379;49.022;12.148;2022-07-22T14:43:48;9.00;;;8.40;;
791;SDS011;379;49.022;12.148;2022-07-22T14:46:15;8.43;;;7.83;;
791;SDS011;379;49.022;12.148;2022-07-22T14:48:41;8.27;;;7.53;;
791;SDS011;379;49.022;12.148;2022-07-22T14:51:09;8.87;;;8.17;;
791;SDS011;379;49.022;12.148;2022-07-22T14:53:37;8.67;;;8.00;;
791;SDS011;379;49.022;12.148;2022-07-22T14:56:04;9.47;;;8.33;;
791;SDS011;379;49.022;12.148;2022-07-22T14:58:30;8.73;;;7.93;;
791;SDS011;379;49.022;12.148;2022-07-22T15:00:57;8.70;;;8.00;;
791;SDS011;379;49.022;12.148;2022-07-22T15:03:24;8.17;;;7.47;;
791;SDS011;379;49.022;12.148;2022-07-22T15:05:50;8.00;;;7.40;;
791;SDS011;379;49.022;12.148;2022-07-22T15:08:17;8.17;;;7.57;;
791;SDS011;379;49.022;12.148;2022-07-22T15:10:45;7.93;;;7.23;;
791;SDS011;379;49.022;12.148;2022-07-22T15:13:12;7.60;;;6.90;;